ADDS METAR Data INFO
IDs: Format: Raw Decoded Include TAF

Data at: 2256 UTC 22 Jun 2018

KUKF 222235Z AUTO 00000KT 10SM SCT065 BKN075 SCT090 23/23 A2984 RMK AO2 P0002
KUKF 222215Z AUTO 00000KT 10SM -RA BKN065 BKN090 23/23 A2984 RMK AO2 P0002
KUKF 222155Z AUTO 24003KT 10SM OVC065 22/22 A2984 RMK AO2
KUKF 222135Z AUTO 00000KT 10SM BKN065 BKN090 OVC120 22/22 A2989 RMK AO2
KUKF 222115Z AUTO 00000KT 10SM -RA SCT034 SCT048 OVC090 22/22 A2988 RMK AO2 LTG DSNT NE
KUKF 222055Z AUTO 00000KT 10SM -RA SCT014 BKN075 OVC090 21/21 A2990 RMK AO2 LTG DSNT NW THRU E P0034
KUKF 222035Z AUTO 00000KT 1SM +TSRA BKN018 OVC039 21/21 A2980 RMK AO2 LTG DSNT NW THRU E P0034
KUKF 222015Z AUTO 24004KT 10SM VCTS SCT043 BKN075 OVC100 27/20 A2983 RMK AO2 LTG DSNT ALQS
KUKF 221955Z AUTO 20004KT 10SM SCT042 BKN075 OVC085 27/21 A2983 RMK AO2 LTG DSNT N AND SW
KUKF 221935Z AUTO 18010G15KT 7SM BKN040 BKN070 OVC100 28/20 A2983 RMK AO2 LTG DSNT N
KUKF 221915Z AUTO 18007KT 130V220 10SM SCT042 SCT070 BKN100 28/20 A2983 RMK AO2 LTG DSNT N
KUKF 221855Z AUTO 21006G14KT 10SM SCT042 SCT050 SCT060 30/21 A2984 RMK AO2
KUKF 221835Z AUTO 23007KT 200V260 10SM SCT039 SCT049 SCT060 30/20 A2985 RMK AO2
KUKF 221815Z AUTO 15008KT 10SM SCT039 BKN049 28/20 A2986 RMK AO2 LTG DSNT N
KUKF 221755Z AUTO 20008KT 170V230 10SM BKN037 BKN049 29/20 A2987 RMK AO2
KUKF 221735Z AUTO 16008KT 10SM BKN037 28/21 A2987 RMK AO2 LTG DSNT N AND NW
KUKF 221715Z AUTO 00000KT 10SM SCT023 SCT028 BKN034 26/22 A2988 RMK AO2
KUKF 221655Z AUTO 31003KT 10SM BKN025 BKN041 OVC060 25/23 A2989 RMK AO2
KUKF 221635Z AUTO 11006KT 10SM SCT049 BKN080 OVC100 26/22 A2989 RMK AO2
KUKF 221615Z AUTO 13005KT 10SM SCT026 BKN037 OVC110 26/22 A2990 RMK AO2
KUKF 221555Z AUTO 00000KT 10SM BKN022 BKN030 26/22 A2991 RMK AO2
KUKF 221535Z AUTO 00000KT 10SM SCT015 SCT025 SCT030 26/22 A2991 RMK AO2
KUKF 221515Z AUTO 13003KT 10SM SCT015 SCT055 26/22 A2991 RMK AO2
KUKF 221455Z AUTO 00000KT 10SM SCT012 BKN055 25/22 A2991 RMK AO2
KUKF 221435Z AUTO 00000KT 10SM BKN010 OVC055 23/22 A2991 RMK AO2
KUKF 221415Z AUTO 00000KT 10SM BKN008 22/22 A2991 RMK AO2
KUKF 221355Z AUTO 00000KT 10SM SCT004 22/22 A2991 RMK AO2
KUKF 221335Z AUTO 00000KT 10SM BKN004 21/21 A2991 RMK AO2
KUKF 221315Z AUTO 00000KT 10SM OVC002 20/20 A2992 RMK AO2
KUKF 221255Z AUTO 00000KT 4SM BR OVC002 20/20 A2991 RMK AO2
KUKF 221235Z AUTO 00000KT 1/2SM FG OVC002 20/20 A2991 RMK AO2
KUKF 221215Z AUTO 00000KT 1/2SM FG OVC002 20/20 A2991 RMK AO2 LTG DSNT NW
KUKF 221155Z AUTO 00000KT 1 1/2SM BR OVC002 20/20 A2991 RMK AO2
KUKF 221135Z AUTO 00000KT 3/4SM BR OVC002 20/20 A2991 RMK AO2
KUKF 221115Z AUTO 00000KT M1/4SM FG OVC002 20/20 A2990 RMK AO2
KUKF 221055Z AUTO 00000KT 1/4SM FG OVC002 20/20 A2991 RMK AO2
KUKF 221035Z AUTO 00000KT M1/4SM FG OVC002 20/20 A2990 RMK AO2
KUKF 221015Z AUTO 00000KT 1/4SM FG OVC002 20/20 A2989 RMK AO2
KUKF 220955Z AUTO 00000KT 1/4SM FG OVC002 20/20 A2988 RMK AO2
KUKF 220935Z AUTO 00000KT 1/2SM FG OVC002 20/20 A2988 RMK AO2
KUKF 220915Z AUTO 00000KT 2 1/2SM BR OVC002 20/20 A2987 RMK AO2
KUKF 220855Z AUTO 00000KT 5SM BR OVC002 20/20 A2987 RMK AO2
KUKF 220835Z AUTO 00000KT 7SM OVC004 20/20 A2986 RMK AO2
KUKF 220815Z AUTO 00000KT 7SM OVC004 20/20 A2986 RMK AO2
KUKF 220755Z AUTO 25003KT 5SM BR OVC004 21/21 A2986 RMK AO2
KUKF 220735Z AUTO 00000KT 7SM OVC004 21/21 A2985 RMK AO2
KUKF 220715Z AUTO 00000KT 5SM BR OVC004 21/21 A2986 RMK AO2
KUKF 220655Z AUTO 00000KT 7SM OVC004 21/21 A2986 RMK AO2
KUKF 220635Z AUTO 00000KT 4SM BR OVC004 21/21 A2986 RMK AO2
KUKF 220615Z AUTO 00000KT 5SM BR OVC002 21/21 A2987 RMK AO2
KUKF 220555Z AUTO 00000KT 3/4SM BR OVC002 21/21 A2987 RMK AO2
KUKF 220535Z AUTO 00000KT 3/4SM BR OVC002 21/21 A2988 RMK AO2
KUKF 220515Z AUTO 00000KT 1 1/4SM BR OVC002 21/21 A2989 RMK AO2
KUKF 220455Z AUTO 00000KT 3SM BR BKN002 OVC007 21/21 A2989 RMK AO2
KUKF 220435Z AUTO 00000KT 4SM BR BKN007 OVC011 21/21 A2989 RMK AO2
KUKF 220415Z AUTO 00000KT 7SM BKN007 21/21 A2990 RMK AO2
KUKF 220355Z AUTO 00000KT 3SM BR SCT003 OVC007 21/21 A2990 RMK AO2
KUKF 220335Z AUTO 00000KT 2SM BR OVC005 21/21 A2990 RMK AO2 LTG DSNT SE
KUKF 220315Z AUTO 00000KT 7SM OVC005 21/21 A2991 RMK AO2
KUKF 220255Z AUTO 00000KT 1 1/4SM BR OVC003 21/21 A2990 RMK AO2
KUKF 220235Z AUTO 00000KT 1 1/4SM BR OVC001 21/21 A2990 RMK AO2 LTG DSNT SE
KUKF 220215Z AUTO 00000KT 4SM BR BKN001 BKN070 21/21 A2989 RMK AO2 LTG DSNT SE
KUKF 220155Z AUTO 00000KT 10SM VCTS SCT070 SCT075 22/22 A2988 RMK AO2 LTG DSNT E THRU S P0002
KUKF 220135Z AUTO 00000KT 10SM VCTS SCT070 BKN100 BKN110 22/22 A2988 RMK AO2 LTG DSNT SE AND S P0002
KUKF 220115Z AUTO 00000KT 10SM VCTS SCT070 OVC090 22/22 A2988 RMK AO2 LTG DSNT S P0002
KUKF 220055Z AUTO 01003KT 10SM OVC070 22/22 A2987 RMK AO2 LTG DSNT S
KUKF 220035Z AUTO 00000KT 5SM VCTS BR BKN080 OVC090 22/22 A2988 RMK AO2 LTG DSNT NE AND SW
KUKF 220015Z AUTO 00000KT 10SM -VCTSDZ SCT065 OVC090 22/22 A2988 RMK AO2 LTG DSNT SE AND SW
KUKF 212355Z AUTO 00000KT 7SM SCT042 SCT050 OVC065 22/22 A2988 RMK AO2 P0016
KUKF 212335Z AUTO 00000KT 2 1/2SM +RA SCT039 BKN050 OVC060 22/22 A2988 RMK AO2 VIS 2V3 LTG DSNT NE P0016
KUKF 212315Z AUTO 25005KT 2 1/2SM +RA SCT038 BKN050 OVC070 22/22 A2987 RMK AO2 LTG DSNT N P0006
KUKF 212255Z AUTO 18008KT 10SM -RA SCT040 BKN060 OVC070 26/22 A2985 RMK AO2
KUKF 212235Z AUTO 00000KT 10SM BKN080 OVC085 27/21 A2984 RMK AO2
KUKF 212215Z AUTO 00000KT 10SM BKN075 OVC090 28/21 A2984 RMK AO2
KUKF 212155Z AUTO 00000KT 10SM OVC085 28/21 A2985 RMK AO2
KUKF 212135Z AUTO 27003KT 10SM SCT085 30/20 A2985 RMK AO2
KUKF 212115Z AUTO 21006KT 10SM SCT041 SCT048 SCT090 28/21 A2985 RMK AO2
KUKF 212055Z AUTO 21005KT 10SM CLR 30/21 A2985 RMK AO2 LTG DSNT N
KUKF 212035Z AUTO 22007KT 10SM CLR 29/20 A2986 RMK AO2
KUKF 212015Z AUTO 22006KT 10SM SCT100 29/21 A2987 RMK AO2
KUKF 211955Z AUTO 21004KT 10SM SCT060 BKN110 29/21 A2988 RMK AO2
KUKF 211935Z AUTO 22003KT 10SM BKN110 28/21 A2988 RMK AO2
KUKF 211915Z AUTO 23005KT 10SM SCT110 28/21 A2989 RMK AO2
KUKF 211855Z AUTO 24004KT 10SM BKN090 BKN120 27/22 A2990 RMK AO2
KUKF 211835Z AUTO 24003KT 10SM OVC080 26/21 A2991 RMK AO2
KUKF 211815Z AUTO 22003KT 10SM SCT034 OVC080 26/22 A2992 RMK AO2
KUKF 211755Z AUTO 23005KT 10SM SCT034 OVC090 26/21 A2992 RMK AO2
KUKF 211735Z AUTO 23003KT 10SM BKN100 OVC120 27/21 A2992 RMK AO2
KUKF 211715Z AUTO 00000KT 10SM SCT075 BKN120 27/20 A2992 RMK AO2
KUKF 211655Z AUTO 20003KT 10SM SCT033 OVC075 28/21 A2993 RMK AO2
KUKF 211635Z AUTO 24004KT 10SM SCT075 28/21 A2993 RMK AO2
KUKF 211615Z AUTO 00000KT 10SM BKN075 28/21 A2993 RMK AO2
KUKF 211555Z AUTO 00000KT 10SM SCT075 27/21 A2995 RMK AO2
KUKF 211535Z AUTO 00000KT 10SM CLR 27/21 A2994 RMK AO2
KUKF 211515Z AUTO 10SM CLR 27/21 A2995 RMK AO2
KUKF 211455Z AUTO 10SM CLR 27/21 A2994 RMK AO2
KUKF 211435Z AUTO 22004KT 10SM CLR 27/20 A2993 RMK AO2
KUKF 211355Z AUTO 25003KT 10SM SCT085 27/20 A2994 RMK AO2
KUKF 211335Z AUTO 00000KT 10SM CLR 27/21 A2993 RMK AO2
KUKF 211315Z AUTO 00000KT 10SM CLR 26/20 A2993 RMK AO2
KUKF 211255Z AUTO 00000KT 10SM CLR 25/20 A2993 RMK AO2
KUKF 211235Z AUTO 00000KT 10SM CLR 25/21 A2993 RMK AO2
KUKF 211215Z AUTO 00000KT 10SM CLR 23/20 A2992 RMK AO2
KUKF 211155Z AUTO 00000KT 10SM CLR 22/20 A2992 RMK AO2
KUKF 211135Z AUTO 24003KT 10SM CLR 21/20 A2992 RMK AO2
KUKF 211115Z AUTO 00000KT 10SM CLR 21/20 A2992 RMK AO2